Time;durP1;ratioP1;P1;durP2;ratioP2;P2;SDS_P1;SDS_P2;PMS_P1;PMS_P2;Temp;Humidity;BMP_temperature;BMP_pressure;BME280_temperature;BME280_humidity;BME280_pressure;Samples;Min_cycle;Max_cycle;Signal;HPM_P1;HPM_P2
2023/05/24 00:00:39;;;;;;;10.03;9.03;;;14.70;99.90;;;;;;5082685;28;20413;-79
2023/05/24 00:03:06;;;;;;;10.33;9.07;;;14.80;99.90;;;;;;5082643;28;20877;-80
2023/05/24 00:05:32;;;;;;;10.65;9.10;;;14.80;99.90;;;;;;5047763;28;20385;-80
2023/05/24 00:07:58;;;;;;;10.77;8.90;;;14.90;99.90;;;;;;5082590;28;20391;-81
2023/05/24 00:10:24;;;;;;;10.95;8.25;;;14.90;99.90;;;;;;5077107;28;20400;-81
2023/05/24 00:12:49;;;;;;;11.88;9.13;;;14.80;99.90;;;;;;5071738;28;20399;-81
2023/05/24 00:15:15;;;;;;;12.48;8.95;;;14.70;99.90;;;;;;5081846;28;20423;-81
2023/05/24 00:17:41;;;;;;;8.65;7.75;;;14.80;99.90;;;;;;5080381;28;20439;-81
2023/05/24 00:20:11;;;;;;;8.40;7.50;;;14.90;99.90;;;;;;5074026;28;20418;-80
2023/05/24 00:22:37;;;;;;;9.20;8.25;;;14.80;99.90;;;;;;5082500;28;20471;-80
2023/05/24 00:25:04;;;;;;;9.75;7.47;;;14.70;99.90;;;;;;5082015;28;20408;-81
2023/05/24 00:27:29;;;;;;;8.85;7.43;;;14.70;99.90;;;;;;5079980;28;20390;-81
2023/05/24 00:29:55;;;;;;;7.95;7.15;;;14.70;99.90;;;;;;5075489;28;20390;-81
2023/05/24 00:32:20;;;;;;;8.70;6.93;;;14.70;99.90;;;;;;5096929;28;20402;-81
2023/05/24 00:34:46;;;;;;;8.43;7.47;;;14.70;99.90;;;;;;5082960;28;20408;-81
2023/05/24 00:37:12;;;;;;;8.27;7.35;;;14.70;99.90;;;;;;5080382;28;20394;-81
2023/05/24 00:39:37;;;;;;;8.13;7.32;;;14.50;99.90;;;;;;5062198;28;20395;-81
2023/05/24 00:42:03;;;;;;;7.93;6.85;;;14.40;99.90;;;;;;5065793;28;20384;-80
2023/05/24 00:44:30;;;;;;;7.43;6.60;;;14.40;99.90;;;;;;5083871;28;20421;-80
2023/05/24 00:46:56;;;;;;;7.65;6.95;;;14.30;99.90;;;;;;5064685;28;20425;-81
2023/05/24 00:49:22;;;;;;;8.43;7.43;;;14.30;99.90;;;;;;5082818;28;20392;-80
2023/05/24 00:51:48;;;;;;;8.00;7.10;;;14.30;99.90;;;;;;5065530;28;20388;-81
2023/05/24 00:54:14;;;;;;;7.88;6.45;;;14.20;99.90;;;;;;5082079;28;20396;-81
2023/05/24 00:56:43;;;;;;;8.23;7.07;;;14.10;99.90;;;;;;5063051;28;20395;-80
2023/05/24 00:59:09;;;;;;;8.50;7.40;;;14.10;99.90;;;;;;5063315;28;20388;-81
2023/05/24 01:01:36;;;;;;;7.55;6.82;;;14.00;99.90;;;;;;5063244;28;20678;-81
2023/05/24 01:04:02;;;;;;;8.93;7.20;;;14.00;99.90;;;;;;5083540;28;20380;-80
2023/05/24 01:06:27;;;;;;;7.80;7.00;;;14.00;99.90;;;;;;5085217;28;20441;-81
2023/05/24 01:08:59;;;;;;;10.40;7.23;;;13.90;99.90;;;;;;5065232;28;20388;-81
2023/05/24 01:11:58;;;;;;;8.98;6.68;;;13.90;99.90;;;;;;5062660;28;20392;-81
2023/05/24 01:14:47;;;;;;;7.38;6.68;;;14.00;99.90;;;;;;5059878;28;20398;-80
2023/05/24 01:17:19;;;;;;;8.50;7.30;;;14.00;99.90;;;;;;5036794;28;20396;-81
2023/05/24 01:19:55;;;;;;;7.97;7.18;;;14.00;99.90;;;;;;5061190;28;20412;-82
2023/05/24 01:22:27;;;;;;;7.72;6.93;;;14.10;99.90;;;;;;5080066;28;20379;-81
2023/05/24 01:25:03;;;;;;;10.60;7.23;;;14.20;99.90;;;;;;5061758;28;20395;-82
2023/05/24 01:27:33;;;;;;;7.57;6.80;;;14.20;99.90;;;;;;5060497;28;20774;-81
2023/05/24 01:29:59;;;;;;;10.03;7.20;;;14.10;99.90;;;;;;5079972;28;20383;-81
2023/05/24 01:32:26;;;;;;;7.75;6.93;;;14.10;99.90;;;;;;5060684;28;20396;-80
2023/05/24 01:34:51;;;;;;;8.07;7.10;;;14.00;99.90;;;;;;5061513;28;20765;-80
2023/05/24 01:37:17;;;;;;;9.70;6.70;;;14.10;99.90;;;;;;5063194;28;20388;-80
2023/05/24 01:39:42;;;;;;;8.43;6.63;;;14.00;99.90;;;;;;5082191;28;20474;-79
2023/05/24 01:42:29;;;;;;;8.30;7.35;;;14.10;99.90;;;;;;5063489;28;20453;-80
2023/05/24 01:45:04;;;;;;;7.28;6.47;;;14.00;99.90;;;;;;5081003;28;20411;-80
2023/05/24 01:47:52;;;;;;;8.27;6.63;;;14.00;99.90;;;;;;5079439;28;20404;-81
2023/05/24 01:50:40;;;;;;;7.63;6.82;;;13.90;99.90;;;;;;5063035;28;20417;-81
2023/05/24 01:53:12;;;;;;;9.20;6.78;;;13.90;99.90;;;;;;5062374;28;20414;-81
2023/05/24 01:55:38;;;;;;;8.95;6.80;;;13.90;99.90;;;;;;5078220;28;20396;-80
2023/05/24 01:58:05;;;;;;;7.65;6.80;;;13.90;99.90;;;;;;5060651;28;20390;-80
2023/05/24 02:00:31;;;;;;;8.57;6.72;;;13.90;99.90;;;;;;5079048;28;20379;-81
2023/05/24 02:02:57;;;;;;;7.15;6.55;;;13.90;99.90;;;;;;5078428;28;20376;-81
2023/05/24 02:05:23;;;;;;;7.70;6.90;;;13.90;99.90;;;;;;5059314;28;20448;-80
2023/05/24 02:07:49;;;;;;;7.67;6.70;;;14.00;99.90;;;;;;5080423;28;20380;-80
2023/05/24 02:10:14;;;;;;;8.63;7.38;;;13.80;99.90;;;;;;5090080;28;20407;-79
2023/05/24 02:12:40;;;;;;;7.90;6.40;;;13.80;99.90;;;;;;5065165;28;20392;-80
2023/05/24 02:15:06;;;;;;;8.20;6.70;;;13.80;99.90;;;;;;5084148;28;20881;-80
2023/05/24 02:17:31;;;;;;;6.73;6.13;;;13.90;99.90;;;;;;5083206;28;20383;-80
2023/05/24 02:19:58;;;;;;;7.30;6.60;;;14.00;99.90;;;;;;5088206;28;20384;-78
2023/05/24 02:22:24;;;;;;;8.60;6.50;;;14.10;99.90;;;;;;5056361;28;20385;-78
2023/05/24 02:24:50;;;;;;;7.22;6.53;;;14.00;99.90;;;;;;5070628;28;20467;-78
2023/05/24 02:27:15;;;;;;;7.57;6.30;;;13.90;99.90;;;;;;5085358;28;20395;-79
2023/05/24 02:29:41;;;;;;;7.17;6.30;;;14.00;99.90;;;;;;5085276;28;20881;-80
2023/05/24 02:32:07;;;;;;;8.77;6.90;;;14.00;99.90;;;;;;5085216;28;20410;-80
2023/05/24 02:34:32;;;;;;;7.05;6.30;;;13.90;99.90;;;;;;5066024;28;20399;-80
2023/05/24 02:36:58;;;;;;;8.30;6.43;;;13.90;99.90;;;;;;5064928;28;20392;-79
2023/05/24 02:39:23;;;;;;;8.10;6.77;;;13.80;99.90;;;;;;5065396;28;20448;-80
2023/05/24 02:41:49;;;;;;;7.10;6.40;;;13.90;99.90;;;;;;5083490;28;20384;-81
2023/05/24 02:44:14;;;;;;;7.55;6.22;;;13.70;99.90;;;;;;5083083;28;20904;-80
2023/05/24 02:46:40;;;;;;;8.20;6.00;;;13.80;99.90;;;;;;5083354;28;20403;-80
2023/05/24 02:49:05;;;;;;;8.00;6.47;;;13.60;99.90;;;;;;5083221;28;20417;-80
2023/05/24 02:51:31;;;;;;;7.57;6.10;;;13.70;99.90;;;;;;5083082;28;20392;-80
2023/05/24 02:53:57;;;;;;;8.50;6.30;;;13.60;99.90;;;;;;5064301;28;20395;-80
2023/05/24 02:56:23;;;;;;;6.80;6.10;;;13.60;99.90;;;;;;5062734;28;20402;-79
2023/05/24 02:58:48;;;;;;;7.60;6.40;;;13.40;99.90;;;;;;5063403;28;20384;-80
2023/05/24 03:01:14;;;;;;;8.20;6.30;;;13.40;99.90;;;;;;5081817;28;20410;-81
2023/05/24 03:03:40;;;;;;;8.85;6.60;;;13.30;99.90;;;;;;5079401;28;20395;-80
2023/05/24 03:06:06;;;;;;;8.75;6.80;;;13.20;99.90;;;;;;5059709;28;20384;-80
2023/05/24 03:08:33;;;;;;;7.40;6.20;;;13.20;99.90;;;;;;5070682;28;20378;-79
2023/05/24 03:10:58;;;;;;;7.75;6.35;;;13.30;99.90;;;;;;5071533;28;20394;-79
2023/05/24 03:13:24;;;;;;;6.82;6.20;;;13.30;99.90;;;;;;5061437;28;20426;-79
2023/05/24 03:15:49;;;;;;;8.43;6.37;;;13.40;99.90;;;;;;5071223;28;20396;-79
2023/05/24 03:18:15;;;;;;;7.63;6.73;;;13.30;99.90;;;;;;5084589;28;20387;-80
2023/05/24 03:20:40;;;;;;;5.97;5.30;;;13.30;99.90;;;;;;5083535;28;20386;-80
2023/05/24 03:23:08;;;;;;;8.32;6.00;;;13.20;99.90;;;;;;5064503;28;20985;-81
2023/05/24 03:25:34;;;;;;;7.00;5.50;;;13.20;99.90;;;;;;5064365;28;20391;-81
2023/05/24 03:28:01;;;;;;;6.60;5.90;;;13.20;99.90;;;;;;5083722;28;20417;-80
2023/05/24 03:30:27;;;;;;;8.90;5.63;;;13.20;99.90;;;;;;5064962;28;20403;-80
2023/05/24 03:32:52;;;;;;;6.20;5.60;;;13.20;99.90;;;;;;5064730;28;20387;-80
2023/05/24 03:35:18;;;;;;;6.73;5.53;;;13.20;99.90;;;;;;5082057;28;20418;-80
2023/05/24 03:37:43;;;;;;;6.60;5.88;;;13.10;99.90;;;;;;5082813;28;20909;-79
2023/05/24 03:40:09;;;;;;;6.40;5.80;;;13.20;99.90;;;;;;5064302;28;20391;-80
2023/05/24 03:42:34;;;;;;;6.90;5.60;;;13.20;99.90;;;;;;5082044;28;20399;-80
2023/05/24 03:45:00;;;;;;;7.00;5.60;;;13.10;99.90;;;;;;5082072;28;20794;-80
2023/05/24 03:47:25;;;;;;;8.60;5.60;;;13.20;99.90;;;;;;5080904;28;20403;-81
2023/05/24 03:49:51;;;;;;;6.78;5.40;;;13.20;99.90;;;;;;5081298;28;20399;-81
2023/05/24 03:52:16;;;;;;;7.30;5.93;;;13.10;99.90;;;;;;5081321;28;20387;-80
2023/05/24 03:54:42;;;;;;;6.90;5.30;;;13.10;99.90;;;;;;5081010;28;20901;-81
2023/05/24 03:57:08;;;;;;;7.22;5.22;;;13.00;99.90;;;;;;5081478;28;20893;-80
2023/05/24 03:59:33;;;;;;;7.10;5.60;;;13.00;99.90;;;;;;5081931;28;20399;-80
2023/05/24 04:01:59;;;;;;;7.40;5.63;;;12.90;99.90;;;;;;5081248;28;20942;-80
2023/05/24 04:04:24;;;;;;;6.90;4.90;;;12.90;99.90;;;;;;5061374;28;20402;-80
2023/05/24 04:06:50;;;;;;;7.18;5.15;;;12.90;99.90;;;;;;5079897;28;20384;-81
2023/05/24 04:09:15;;;;;;;6.53;5.50;;;13.00;99.90;;;;;;5061040;28;20396;-81
2023/05/24 04:11:41;;;;;;;8.60;5.30;;;12.90;99.90;;;;;;5081057;28;20384;-80
2023/05/24 04:14:06;;;;;;;5.57;4.90;;;12.90;99.90;;;;;;5061707;28;20422;-80
2023/05/24 04:16:35;;;;;;;6.90;5.03;;;12.90;99.90;;;;;;5080041;28;20416;-81
2023/05/24 04:19:02;;;;;;;6.93;5.25;;;12.90;99.90;;;;;;5064477;28;20421;-80
2023/05/24 04:21:32;;;;;;;6.20;5.00;;;12.90;99.90;;;;;;5087467;28;20376;-81
2023/05/24 04:24:00;;;;;;;7.00;5.30;;;14.20;99.90;;;;;;5065993;28;20392;-81
2023/05/24 04:26:26;;;;;;;6.85;5.15;;;12.90;99.90;;;;;;5065907;28;20418;-81
2023/05/24 04:28:52;;;;;;;5.70;5.13;;;13.00;99.90;;;;;;5081944;28;20384;-81
2023/05/24 04:31:19;;;;;;;6.40;5.25;;;12.90;99.90;;;;;;5082619;28;20409;-81
2023/05/24 04:33:44;;;;;;;5.97;5.10;;;13.00;99.90;;;;;;5079481;28;20392;-81
2023/05/24 04:36:10;;;;;;;6.60;5.15;;;12.90;99.90;;;;;;5075763;28;20400;-81
2023/05/24 04:38:37;;;;;;;7.00;5.80;;;12.90;99.90;;;;;;5080101;28;20383;-81
2023/05/24 04:41:04;;;;;;;5.97;4.40;;;12.90;99.90;;;;;;5081023;28;20405;-81
2023/05/24 04:43:30;;;;;;;7.90;5.30;;;12.90;99.90;;;;;;5061642;28;20392;-80
2023/05/24 04:45:55;;;;;;;7.77;5.37;;;12.90;99.90;;;;;;5080288;28;20391;-80
2023/05/24 04:48:23;;;;;;;7.60;5.18;;;12.90;99.90;;;;;;5061861;28;20403;-82
2023/05/24 04:50:51;;;;;;;7.95;5.55;;;12.80;99.90;;;;;;5063838;28;20395;-82
2023/05/24 04:53:16;;;;;;;6.63;4.90;;;12.90;99.90;;;;;;5081046;28;20386;-82
2023/05/24 04:55:42;;;;;;;5.88;4.70;;;13.00;99.90;;;;;;5062883;28;20396;-82
2023/05/24 04:58:07;;;;;;;6.23;4.90;;;13.00;99.90;;;;;;5080704;28;20437;-82
2023/05/24 05:00:33;;;;;;;6.00;5.40;;;13.00;99.90;;;;;;5062551;28;20906;-82
2023/05/24 05:02:58;;;;;;;6.00;4.72;;;13.20;99.90;;;;;;5080604;28;20399;-82
2023/05/24 05:05:24;;;;;;;6.73;5.00;;;13.20;99.90;;;;;;5080729;28;20441;-82
2023/05/24 05:07:49;;;;;;;5.80;4.93;;;13.20;99.90;;;;;;5061545;28;20418;-82
2023/05/24 05:10:15;;;;;;;5.90;5.20;;;13.20;99.90;;;;;;5079855;28;20387;-81
2023/05/24 05:12:41;;;;;;;7.38;5.38;;;13.20;99.90;;;;;;5080655;28;20387;-81
2023/05/24 05:15:07;;;;;;;6.50;4.83;;;13.10;99.90;;;;;;5066221;28;20399;-82
2023/05/24 05:17:32;;;;;;;7.13;5.68;;;13.00;99.90;;;;;;5081180;28;20418;-82
2023/05/24 05:19:58;;;;;;;5.40;4.60;;;13.00;99.90;;;;;;5063207;28;20952;-82
2023/05/24 05:22:23;;;;;;;7.13;5.50;;;13.00;99.90;;;;;;5081958;28;20418;-82
2023/05/24 05:24:49;;;;;;;7.88;5.40;;;13.00;99.90;;;;;;5081856;28;20483;-82
2023/05/24 05:27:14;;;;;;;5.80;5.20;;;13.00;99.90;;;;;;5063090;28;20514;-82
2023/05/24 05:29:40;;;;;;;7.10;5.80;;;13.20;99.90;;;;;;5082072;28;20395;-82
2023/05/24 05:32:06;;;;;;;7.75;4.90;;;13.20;99.90;;;;;;5080957;28;21099;-82
2023/05/24 05:34:31;;;;;;;7.47;5.15;;;13.30;99.90;;;;;;5077703;28;20399;-82
2023/05/24 05:36:57;;;;;;;6.60;5.28;;;13.30;99.90;;;;;;5059597;28;20419;-83
2023/05/24 05:39:22;;;;;;;7.83;5.20;;;13.40;99.90;;;;;;5085770;28;20430;-82
2023/05/24 05:41:48;;;;;;;7.22;5.13;;;13.30;99.90;;;;;;5085826;28;20404;-82
2023/05/24 05:44:14;;;;;;;7.63;5.50;;;13.20;99.90;;;;;;5080514;28;20485;-83
2023/05/24 05:46:42;;;;;;;7.67;5.17;;;13.40;99.90;;;;;;5063285;28;20403;-82
2023/05/24 05:49:08;;;;;;;8.82;4.95;;;13.60;99.90;;;;;;5081953;28;20410;-82
2023/05/24 05:51:33;;;;;;;7.95;5.20;;;13.30;99.90;;;;;;5082829;28;20387;-82
2023/05/24 05:53:59;;;;;;;8.50;4.10;;;13.20;99.90;;;;;;5080365;28;20781;-82
2023/05/24 05:56:26;;;;;;;7.50;5.20;;;13.40;99.90;;;;;;5079398;28;20781;-81
2023/05/24 05:58:52;;;;;;;8.88;5.47;;;13.30;99.90;;;;;;5061764;28;20384;-82
2023/05/24 06:01:17;;;;;;;7.47;4.90;;;13.10;99.90;;;;;;5080682;28;20406;-84
2023/05/24 06:03:43;;;;;;;8.27;5.30;;;13.30;99.90;;;;;;5061107;28;20384;-82
2023/05/24 06:06:09;;;;;;;7.20;5.10;;;13.30;99.90;;;;;;5060764;28;20482;-83
2023/05/24 06:08:35;;;;;;;7.20;5.03;;;13.40;99.90;;;;;;5081540;28;20410;-81
2023/05/24 06:11:01;;;;;;;5.95;5.25;;;13.30;99.90;;;;;;5062592;28;20411;-82
2023/05/24 06:13:27;;;;;;;5.93;4.87;;;13.30;99.90;;;;;;5081575;28;20460;-82
2023/05/24 06:15:53;;;;;;;7.88;4.80;;;13.40;99.90;;;;;;5079174;28;20391;-81
2023/05/24 06:18:19;;;;;;;8.57;5.50;;;13.50;99.90;;;;;;5061138;28;20429;-83
2023/05/24 06:20:45;;;;;;;6.82;5.07;;;13.50;99.90;;;;;;5061185;28;20379;-81
2023/05/24 06:23:11;;;;;;;6.40;5.40;;;13.50;99.90;;;;;;5093457;28;20462;-81
2023/05/24 06:25:37;;;;;;;5.25;4.43;;;13.40;99.90;;;;;;5082119;28;20395;-81
2023/05/24 06:28:03;;;;;;;7.18;5.85;;;13.50;99.90;;;;;;5078180;28;20753;-80
2023/05/24 06:30:28;;;;;;;7.40;5.20;;;13.40;99.90;;;;;;5075506;28;20393;-82
2023/05/24 06:32:55;;;;;;;8.50;5.40;;;13.40;99.90;;;;;;5091211;28;20471;-83
2023/05/24 06:35:20;;;;;;;7.40;5.40;;;13.30;99.90;;;;;;5091985;28;20414;-81
2023/05/24 06:37:46;;;;;;;7.80;5.35;;;13.30;99.90;;;;;;5080199;28;20878;-82
2023/05/24 06:40:12;;;;;;;5.77;4.90;;;13.30;99.90;;;;;;5087658;28;20387;-80
2023/05/24 06:42:38;;;;;;;6.40;4.80;;;13.40;99.90;;;;;;5087331;28;20407;-80
2023/05/24 06:45:04;;;;;;;9.43;4.90;;;13.20;99.90;;;;;;5089808;28;20482;-81
2023/05/24 06:47:30;;;;;;;10.25;5.13;;;13.30;99.90;;;;;;5089501;28;20395;-81
2023/05/24 06:49:56;;;;;;;8.82;5.30;;;13.20;99.90;;;;;;5068589;28;20430;-82
2023/05/24 06:52:21;;;;;;;6.70;5.35;;;13.20;99.90;;;;;;5063620;28;20388;-82
2023/05/24 06:54:48;;;;;;;6.32;4.80;;;13.20;99.90;;;;;;5083164;28;20463;-82
2023/05/24 06:57:13;;;;;;;7.60;5.30;;;13.20;99.90;;;;;;5079478;28;20391;-81
2023/05/24 06:59:39;;;;;;;8.10;5.00;;;13.30;99.90;;;;;;5078340;28;20855;-81
2023/05/24 07:02:05;;;;;;;11.65;5.57;;;13.20;99.90;;;;;;5078628;28;20372;-81
2023/05/24 07:04:31;;;;;;;8.27;5.38;;;13.10;99.90;;;;;;5052887;28;20806;-82
2023/05/24 07:06:57;;;;;;;7.65;5.00;;;13.20;99.90;;;;;;5040662;28;20895;-82
2023/05/24 07:09:22;;;;;;;9.90;5.40;;;13.20;99.90;;;;;;5058115;28;20398;-82
2023/05/24 07:11:48;;;;;;;7.85;4.93;;;13.30;99.90;;;;;;5079297;28;20388;-82
2023/05/24 07:14:13;;;;;;;7.25;5.20;;;13.30;99.90;;;;;;5061421;28;20399;-82
2023/05/24 07:16:39;;;;;;;7.97;5.50;;;13.30;99.90;;;;;;5060288;28;20487;-81
2023/05/24 07:19:06;;;;;;;9.80;5.67;;;13.30;99.90;;;;;;5060385;28;20392;-82
2023/05/24 07:21:31;;;;;;;6.47;5.13;;;13.40;99.90;;;;;;5078133;28;20399;-81
2023/05/24 07:23:57;;;;;;;7.40;5.18;;;13.50;99.90;;;;;;5078116;28;20479;-81
2023/05/24 07:26:22;;;;;;;5.63;4.70;;;13.50;99.90;;;;;;5077678;28;20479;-82
2023/05/24 07:28:48;;;;;;;7.30;5.03;;;13.40;99.90;;;;;;5078724;28;20874;-81
2023/05/24 07:31:14;;;;;;;6.97;5.30;;;13.40;99.90;;;;;;5078512;28;20889;-82
2023/05/24 07:33:40;;;;;;;7.05;4.70;;;13.40;99.90;;;;;;5076664;28;20427;-81
2023/05/24 07:36:06;;;;;;;7.22;5.00;;;13.40;99.90;;;;;;5057971;28;20404;-81
2023/05/24 07:38:33;;;;;;;6.13;5.25;;;13.30;99.90;;;;;;5078872;28;20376;-81
2023/05/24 07:41:00;;;;;;;10.55;5.30;;;13.30;99.90;;;;;;5079464;28;20379;-81
2023/05/24 07:43:26;;;;;;;10.77;4.97;;;13.20;99.90;;;;;;5079680;28;20467;-82
2023/05/24 07:45:52;;;;;;;7.05;5.80;;;13.10;99.90;;;;;;5076640;28;20427;-80
2023/05/24 07:48:18;;;;;;;9.20;5.10;;;13.20;99.90;;;;;;5075992;28;20392;-82
2023/05/24 07:50:47;;;;;;;10.35;5.13;;;13.00;99.90;;;;;;5075681;28;21185;-81
2023/05/24 07:53:14;;;;;;;6.65;4.95;;;13.00;99.90;;;;;;5077081;28;20402;-81
2023/05/24 07:55:39;;;;;;;7.10;5.38;;;13.10;99.90;;;;;;5057344;28;20849;-81
2023/05/24 07:58:05;;;;;;;7.22;4.40;;;13.20;99.90;;;;;;5057535;28;20420;-81
2023/05/24 08:00:32;;;;;;;7.10;5.20;;;13.10;99.90;;;;;;5074453;28;20862;-81
2023/05/24 08:02:57;;;;;;;9.70;4.88;;;13.10;99.90;;;;;;5076242;28;20420;-82
2023/05/24 08:05:23;;;;;;;10.20;4.72;;;13.10;99.90;;;;;;5075323;28;20900;-80
2023/05/24 08:07:48;;;;;;;9.18;5.20;;;13.00;99.90;;;;;;5057791;28;20387;-81
2023/05/24 08:10:14;;;;;;;8.00;4.80;;;13.00;99.90;;;;;;5075214;28;20388;-81
2023/05/24 08:12:40;;;;;;;8.73;4.90;;;13.10;99.90;;;;;;5065984;28;20489;-80
2023/05/24 08:15:06;;;;;;;7.63;5.30;;;13.20;99.90;;;;;;5062898;28;20420;-80
2023/05/24 08:17:32;;;;;;;15.55;5.75;;;13.30;99.90;;;;;;5093067;28;20376;-81
2023/05/24 08:19:58;;;;;;;10.27;5.82;;;13.10;99.90;;;;;;5080411;28;20442;-82
2023/05/24 08:22:24;;;;;;;9.40;5.40;;;13.30;99.90;;;;;;5080447;28;20392;-81
2023/05/24 08:24:51;;;;;;;7.72;4.47;;;13.40;99.90;;;;;;5079191;28;21022;-80
2023/05/24 08:27:16;;;;;;;8.52;4.93;;;13.40;99.90;;;;;;5066012;28;20758;-81
2023/05/24 08:29:42;;;;;;;7.00;4.78;;;13.50;99.90;;;;;;5078736;28;20379;-81
2023/05/24 08:32:08;;;;;;;7.35;4.95;;;13.50;99.90;;;;;;5078442;28;20380;-82
2023/05/24 08:34:37;;;;;;;8.20;4.50;;;13.60;99.90;;;;;;5078336;28;20400;-81
2023/05/24 08:37:03;;;;;;;9.90;5.43;;;13.60;99.90;;;;;;5075188;28;20461;-81
2023/05/24 08:39:29;;;;;;;7.63;4.40;;;13.50;99.90;;;;;;5076391;28;20395;-81
2023/05/24 08:41:56;;;;;;;9.03;4.50;;;13.80;99.90;;;;;;5077220;28;20746;-81
2023/05/24 08:44:23;;;;;;;12.93;5.97;;;13.90;99.90;;;;;;5059816;28;20390;-81
2023/05/24 08:46:50;;;;;;;8.90;5.15;;;13.90;99.90;;;;;;5060266;28;20427;-80
2023/05/24 08:49:15;;;;;;;9.05;5.00;;;13.70;99.90;;;;;;5058570;28;20910;-80
2023/05/24 08:51:43;;;;;;;8.53;4.77;;;13.80;99.90;;;;;;5076325;28;20408;-81
2023/05/24 08:54:10;;;;;;;8.48;4.60;;;13.70;99.90;;;;;;5075955;28;20916;-81
2023/05/24 08:56:38;;;;;;;7.78;4.53;;;13.90;99.90;;;;;;5076236;28;20419;-81
2023/05/24 08:59:03;;;;;;;9.85;4.95;;;13.90;99.90;;;;;;5076388;28;20473;-81
2023/05/24 09:01:30;;;;;;;11.10;5.00;;;13.60;99.90;;;;;;5059388;28;20384;-82
2023/05/24 09:03:55;;;;;;;7.82;4.85;;;13.60;99.90;;;;;;5078325;28;20409;-81
2023/05/24 09:06:24;;;;;;;7.25;4.80;;;13.80;99.90;;;;;;5075247;28;20429;-82
2023/05/24 09:08:51;;;;;;;9.68;5.28;;;13.80;99.90;;;;;;5077364;28;20387;-82
2023/05/24 09:11:17;;;;;;;10.13;4.60;;;13.90;99.90;;;;;;5057962;28;20475;-80
2023/05/24 09:13:44;;;;;;;7.07;4.75;;;13.90;99.90;;;;;;5074665;28;20383;-80
2023/05/24 09:16:10;;;;;;;7.55;4.80;;;13.60;99.90;;;;;;5056946;28;20419;-81
2023/05/24 09:18:35;;;;;;;8.27;4.18;;;13.50;99.90;;;;;;5056491;28;20392;-81
2023/05/24 09:21:01;;;;;;;8.77;4.53;;;13.40;99.90;;;;;;5075212;28;20376;-81
2023/05/24 09:23:27;;;;;;;10.32;5.20;;;13.30;99.90;;;;;;5055992;28;20908;-81
2023/05/24 09:25:53;;;;;;;9.25;5.20;;;13.20;99.90;;;;;;5056532;28;20423;-81
2023/05/24 09:28:20;;;;;;;10.67;5.70;;;13.20;99.90;;;;;;5057399;28;20392;-81
2023/05/24 09:30:57;;;;;;;7.20;4.93;;;13.00;99.90;;;;;;5056476;28;20951;-81
2023/05/24 09:33:31;;;;;;;7.50;4.40;;;13.30;99.90;;;;;;5056929;28;20758;-81
2023/05/24 09:36:02;;;;;;;9.27;4.88;;;13.30;99.90;;;;;;5054795;28;20908;-80
2023/05/24 09:38:28;;;;;;;8.27;5.10;;;13.30;99.90;;;;;;5056108;28;20384;-81
2023/05/24 09:41:20;;;;;;;7.93;4.95;;;13.30;99.90;;;;;;5057169;28;20459;-81
2023/05/24 09:43:48;;;;;;;8.67;5.00;;;13.20;99.90;;;;;;5070393;28;20960;-81
2023/05/24 09:46:18;;;;;;;8.18;5.40;;;13.50;99.90;;;;;;5058932;28;21067;-80
2023/05/24 09:48:57;;;;;;;12.55;5.55;;;13.50;99.90;;;;;;5057058;28;20457;-82
2023/05/24 09:51:23;;;;;;;8.47;5.07;;;13.70;99.90;;;;;;5073579;28;20402;-81
2023/05/24 09:53:51;;;;;;;7.03;4.88;;;13.60;99.90;;;;;;5055297;28;20475;-81
2023/05/24 09:56:17;;;;;;;7.70;4.82;;;13.60;99.90;;;;;;5073833;28;20411;-81
2023/05/24 09:58:44;;;;;;;7.65;5.88;;;13.60;99.90;;;;;;5057850;28;20398;-81
2023/05/24 10:01:11;;;;;;;8.45;5.53;;;13.60;99.90;;;;;;5076118;28;20766;-81
2023/05/24 10:03:36;;;;;;;11.85;5.35;;;13.50;99.90;;;;;;5055782;28;20470;-80
2023/05/24 10:06:06;;;;;;;9.52;5.80;;;13.50;99.90;;;;;;5055547;28;20404;-80
2023/05/24 10:08:33;;;;;;;6.60;5.10;;;13.60;99.90;;;;;;5074160;28;20376;-80
2023/05/24 10:11:02;;;;;;;12.43;5.88;;;13.80;99.90;;;;;;5073572;28;20388;-80
2023/05/24 10:13:27;;;;;;;7.55;5.10;;;13.80;99.90;;;;;;5055130;28;20392;-81
2023/05/24 10:15:53;;;;;;;8.93;4.97;;;13.90;99.90;;;;;;5054905;28;20411;-82
2023/05/24 10:18:19;;;;;;;7.07;4.82;;;13.90;99.90;;;;;;5073904;28;20426;-82
2023/05/24 10:20:45;;;;;;;9.73;5.20;;;14.00;99.90;;;;;;5074309;28;20882;-82
2023/05/24 10:23:15;;;;;;;8.47;4.43;;;14.10;99.90;;;;;;5074011;28;20899;-80
2023/05/24 10:25:48;;;;;;;8.60;5.95;;;14.20;99.90;;;;;;5073500;28;20376;-83
2023/05/24 10:28:15;;;;;;;9.15;5.20;;;14.20;99.90;;;;;;5073221;28;20406;-80
2023/05/24 10:31:01;;;;;;;12.95;5.47;;;14.30;99.90;;;;;;5074812;28;20440;-80
2023/05/24 10:33:28;;;;;;;10.32;5.10;;;14.40;99.90;;;;;;5035534;28;20389;-81
2023/05/24 10:35:55;;;;;;;6.47;4.82;;;14.60;99.90;;;;;;5073794;28;20414;-81
2023/05/24 10:38:23;;;;;;;10.90;5.38;;;14.60;99.90;;;;;;5062155;28;20705;-81
2023/05/24 10:40:49;;;;;;;8.48;5.38;;;14.70;99.90;;;;;;5059620;28;20384;-81
2023/05/24 10:43:16;;;;;;;7.85;5.00;;;14.70;99.90;;;;;;5085799;28;20446;-81
2023/05/24 10:45:47;;;;;;;9.38;5.10;;;14.90;99.90;;;;;;5071213;28;20404;-80
2023/05/24 10:48:12;;;;;;;7.45;4.80;;;14.80;99.90;;;;;;5097988;23;20427;-81
2023/05/24 10:50:39;;;;;;;8.10;4.80;;;14.70;99.90;;;;;;5091841;28;20391;-78
2023/05/24 10:53:14;;;;;;;9.25;5.88;;;14.80;99.90;;;;;;5113150;28;20378;-79
2023/05/24 10:55:58;;;;;;;8.00;5.20;;;15.00;99.90;;;;;;5093486;28;20726;-78
2023/05/24 10:58:46;;;;;;;8.05;5.20;;;15.20;99.90;;;;;;5106064;28;20384;-77
2023/05/24 11:01:29;;;;;;;8.10;5.03;;;15.40;99.90;;;;;;5092368;28;20594;-78
2023/05/24 11:04:07;;;;;;;11.30;5.28;;;15.50;99.90;;;;;;5058616;28;20946;-78
2023/05/24 11:06:48;;;;;;;7.53;5.22;;;15.40;99.90;;;;;;5071247;28;20400;-79
2023/05/24 11:09:19;;;;;;;9.18;4.88;;;15.50;99.90;;;;;;5083103;28;20475;-80
2023/05/24 11:11:46;;;;;;;10.05;5.20;;;15.30;99.90;;;;;;5071618;28;20395;-80
2023/05/24 11:14:13;;;;;;;5.55;4.78;;;15.40;99.90;;;;;;5089250;28;20446;-80
2023/05/24 11:16:39;;;;;;;8.07;4.90;;;15.40;99.90;;;;;;5081975;28;20475;-80
2023/05/24 11:19:16;;;;;;;8.18;5.32;;;15.50;99.90;;;;;;5082948;28;20422;-80
2023/05/24 11:21:44;;;;;;;9.25;5.20;;;15.40;99.90;;;;;;5064548;28;20478;-81
2023/05/24 11:24:10;;;;;;;8.13;5.63;;;15.50;99.90;;;;;;5083965;28;20470;-81
2023/05/24 11:26:36;;;;;;;8.55;4.93;;;15.30;99.90;;;;;;5063799;28;20431;-80
2023/05/24 11:29:03;;;;;;;8.17;5.47;;;15.60;99.90;;;;;;5080020;28;20399;-79
2023/05/24 11:31:29;;;;;;;10.00;5.20;;;15.40;99.90;;;;;;5064776;28;20402;-79
2023/05/24 11:33:54;;;;;;;6.90;4.40;;;15.70;99.90;;;;;;5079662;28;20915;-80
2023/05/24 11:36:20;;;;;;;9.37;5.07;;;15.80;99.90;;;;;;5080811;28;20416;-81
2023/05/24 11:38:47;;;;;;;10.68;5.50;;;15.80;99.90;;;;;;5081809;28;20403;-79
2023/05/24 11:41:13;;;;;;;10.40;5.13;;;15.90;99.90;;;;;;5082128;28;20443;-81
2023/05/24 11:43:40;;;;;;;8.95;4.78;;;15.90;99.90;;;;;;5080822;28;20411;-81
2023/05/24 11:46:06;;;;;;;7.78;4.70;;;16.00;99.90;;;;;;5080199;28;20391;-80
2023/05/24 11:48:31;;;;;;;7.00;4.65;;;16.00;99.90;;;;;;5062870;28;20419;-79
2023/05/24 11:50:58;;;;;;;8.35;5.05;;;15.90;99.90;;;;;;5063142;28;20395;-82
2023/05/24 11:53:24;;;;;;;9.55;6.00;;;15.70;99.90;;;;;;5081172;28;20406;-80
2023/05/24 11:55:51;;;;;;;6.27;4.80;;;15.60;99.90;;;;;;5077462;28;20399;-80
2023/05/24 11:58:27;;;;;;;8.50;5.00;;;15.60;99.90;;;;;;5078424;28;20380;-81
2023/05/24 12:00:52;;;;;;;6.20;4.75;;;15.80;99.90;;;;;;5062101;28;20438;-81
2023/05/24 12:03:18;;;;;;;10.33;5.40;;;15.90;99.90;;;;;;5080829;28;20403;-80
2023/05/24 12:05:44;;;;;;;8.75;5.57;;;16.00;99.90;;;;;;5075579;28;20932;-81
2023/05/24 12:08:11;;;;;;;7.25;4.32;;;16.20;99.90;;;;;;5068984;28;20451;-81
2023/05/24 12:10:40;;;;;;;7.30;4.70;;;16.60;99.90;;;;;;5065357;28;20384;-81
2023/05/24 12:13:23;;;;;;;7.85;4.90;;;16.70;99.90;;;;;;5060144;28;20388;-79
2023/05/24 12:15:58;;;;;;;8.63;5.30;;;16.70;99.90;;;;;;5078104;28;20881;-81
2023/05/24 12:18:25;;;;;;;7.57;4.93;;;16.60;99.90;;;;;;5078864;28;20808;-80
2023/05/24 12:20:51;;;;;;;8.00;5.07;;;16.40;99.90;;;;;;5080424;28;20378;-80
2023/05/24 12:23:23;;;;;;;10.32;5.63;;;16.60;99.90;;;;;;5080380;28;20390;-80
2023/05/24 12:25:49;;;;;;;9.93;5.35;;;16.80;99.90;;;;;;5077233;28;20399;-80
2023/05/24 12:28:18;;;;;;;10.43;5.17;;;16.60;99.90;;;;;;5060980;28;20392;-80
2023/05/24 12:30:43;;;;;;;9.57;5.30;;;16.60;99.90;;;;;;5078721;28;20761;-80
2023/05/24 12:33:10;;;;;;;10.27;5.50;;;16.70;99.90;;;;;;5059181;28;20478;-80
2023/05/24 12:35:40;;;;;;;7.82;5.00;;;16.60;99.90;;;;;;5077727;28;21220;-79
2023/05/24 12:38:07;;;;;;;12.52;6.13;;;16.60;99.90;;;;;;5078285;28;20430;-80
2023/05/24 12:40:33;;;;;;;9.13;5.20;;;16.50;99.90;;;;;;5058441;28;20388;-79
2023/05/24 12:42:59;;;;;;;7.68;5.00;;;16.70;99.90;;;;;;5057411;28;20422;-80
2023/05/24 12:45:26;;;;;;;14.45;7.90;;;16.80;99.90;;;;;;5074621;28;20375;-81